Time;durP1;ratioP1;P1;durP2;ratioP2;P2;SDS_P1;SDS_P2;PMS_P1;PMS_P2;Temp;Humidity;BMP_temperature;BMP_pressure;BME280_temperature;BME280_humidity;BME280_pressure;Samples;Min_cycle;Max_cycle;Signal;HPM_P1;HPM_P2
2023/12/17 00:01:25;;;;;;;20.03;12.47;;;1.40;99.90;;;;;;5069199;28;20626;-70
2023/12/17 00:03:51;;;;;;;19.40;11.23;;;1.30;99.90;;;;;;5069170;28;20475;-71
2023/12/17 00:06:17;;;;;;;15.73;10.30;;;1.20;99.90;;;;;;5068652;28;20260;-71
2023/12/17 00:08:43;;;;;;;16.60;10.00;;;1.20;99.90;;;;;;5068508;28;20804;-70
2023/12/17 00:11:09;;;;;;;13.23;10.05;;;1.10;99.90;;;;;;5066564;28;20557;-71
2023/12/17 00:13:36;;;;;;;19.55;12.65;;;1.10;99.90;;;;;;5068250;28;20764;-71
2023/12/17 00:16:05;;;;;;;21.00;12.75;;;1.10;99.90;;;;;;5067498;28;20629;-72
2023/12/17 00:18:30;;;;;;;21.63;12.50;;;1.10;99.90;;;;;;5068874;28;20300;-70
2023/12/17 00:20:56;;;;;;;17.73;12.13;;;1.20;99.90;;;;;;5069580;28;20271;-70
2023/12/17 00:23:21;;;;;;;15.23;9.80;;;1.10;99.90;;;;;;5050736;28;20280;-72
2023/12/17 00:25:47;;;;;;;18.20;11.50;;;1.10;99.90;;;;;;5068577;28;20229;-71
2023/12/17 00:28:13;;;;;;;17.70;10.13;;;1.10;99.90;;;;;;5068431;28;20223;-69
2023/12/17 00:30:38;;;;;;;19.57;9.97;;;1.00;99.90;;;;;;5068808;28;20180;-71
2023/12/17 00:33:04;;;;;;;15.13;9.50;;;1.00;99.90;;;;;;5049851;28;20182;-71
2023/12/17 00:35:29;;;;;;;18.40;11.33;;;1.00;99.90;;;;;;5068021;28;20180;-71
2023/12/17 00:37:55;;;;;;;17.93;11.57;;;1.00;99.90;;;;;;5067977;28;20707;-71
2023/12/17 00:40:21;;;;;;;21.80;11.43;;;0.90;99.90;;;;;;5067309;28;20214;-71
2023/12/17 00:42:46;;;;;;;18.83;11.50;;;0.90;99.90;;;;;;5068197;28;20184;-71
2023/12/17 00:45:12;;;;;;;16.30;10.33;;;0.90;99.90;;;;;;5068426;28;20187;-71
2023/12/17 00:47:38;;;;;;;15.03;10.63;;;0.90;99.90;;;;;;5066352;28;20334;-71
2023/12/17 00:50:04;;;;;;;12.03;8.87;;;0.90;99.90;;;;;;5067748;28;20250;-72
2023/12/17 00:52:29;;;;;;;21.60;11.27;;;0.90;99.90;;;;;;5068027;28;20182;-71
2023/12/17 00:54:55;;;;;;;14.53;8.80;;;0.90;99.90;;;;;;5066321;28;20518;-70
2023/12/17 00:57:21;;;;;;;13.73;8.70;;;0.90;99.90;;;;;;5067724;28;20556;-72
2023/12/17 00:59:46;;;;;;;14.90;10.30;;;0.90;99.90;;;;;;5067705;28;20657;-70
2023/12/17 01:02:12;;;;;;;17.70;10.07;;;0.80;99.90;;;;;;5067348;28;20180;-71
2023/12/17 01:04:38;;;;;;;10.32;6.90;;;0.80;99.90;;;;;;5065638;28;20190;-71
2023/12/17 01:07:04;;;;;;;14.30;9.27;;;0.80;99.90;;;;;;5048562;28;20876;-71
2023/12/17 01:09:30;;;;;;;14.93;8.60;;;0.80;99.90;;;;;;5066874;28;20519;-71
2023/12/17 01:11:57;;;;;;;20.23;8.47;;;0.80;99.90;;;;;;5065577;28;20568;-71
2023/12/17 01:14:24;;;;;;;17.25;9.15;;;0.80;99.90;;;;;;5065236;28;20193;-71
2023/12/17 01:16:50;;;;;;;14.45;9.35;;;0.70;99.90;;;;;;5067245;28;20228;-71
2023/12/17 01:19:16;;;;;;;13.15;9.02;;;0.70;99.90;;;;;;5067209;28;20171;-71
2023/12/17 01:21:41;;;;;;;14.70;8.50;;;0.70;99.90;;;;;;5065717;28;20264;-71
2023/12/17 01:24:07;;;;;;;13.50;9.27;;;0.70;99.90;;;;;;5067867;28;20191;-71
2023/12/17 01:26:33;;;;;;;13.43;8.07;;;0.70;99.90;;;;;;5067773;28;20279;-71
2023/12/17 01:28:58;;;;;;;13.70;9.30;;;0.70;99.90;;;;;;5067353;28;20235;-71
2023/12/17 01:31:24;;;;;;;13.20;8.13;;;0.60;99.90;;;;;;5067627;28;20222;-70
2023/12/17 01:33:50;;;;;;;12.60;8.03;;;0.60;99.90;;;;;;5068840;28;20597;-72
2023/12/17 01:36:15;;;;;;;11.53;6.90;;;0.60;99.90;;;;;;5048700;28;20184;-72
2023/12/17 01:38:41;;;;;;;10.67;7.73;;;0.60;99.90;;;;;;5066808;28;20456;-71
2023/12/17 01:41:07;;;;;;;9.07;7.30;;;0.50;99.90;;;;;;5066755;28;20188;-71
2023/12/17 01:43:33;;;;;;;17.77;7.47;;;0.50;99.90;;;;;;5048523;28;20188;-72
2023/12/17 01:45:59;;;;;;;9.98;7.13;;;0.50;99.90;;;;;;5066625;28;20261;-72
2023/12/17 01:48:26;;;;;;;14.60;7.87;;;0.60;99.90;;;;;;5066456;28;20718;-72
2023/12/17 01:50:53;;;;;;;11.27;8.05;;;0.60;99.90;;;;;;5066166;28;20421;-72
2023/12/17 01:53:21;;;;;;;15.88;10.88;;;0.70;99.90;;;;;;5066488;28;20187;-70
2023/12/17 01:55:49;;;;;;;16.38;10.13;;;0.70;99.90;;;;;;5066499;28;20191;-72
2023/12/17 01:58:16;;;;;;;16.38;9.30;;;0.70;99.90;;;;;;5064861;28;20215;-72
2023/12/17 02:00:43;;;;;;;15.40;10.05;;;0.60;99.90;;;;;;5066328;28;20206;-72
2023/12/17 02:03:08;;;;;;;14.23;8.23;;;0.60;99.90;;;;;;5066671;28;20560;-73
2023/12/17 02:05:35;;;;;;;13.00;8.40;;;0.50;99.90;;;;;;5065009;28;20191;-71
2023/12/17 02:08:02;;;;;;;9.73;6.70;;;0.30;99.90;;;;;;5066255;28;20230;-73
2023/12/17 02:10:27;;;;;;;13.23;7.97;;;0.30;99.90;;;;;;5066249;28;20512;-72
2023/12/17 02:12:53;;;;;;;12.73;7.77;;;0.30;99.90;;;;;;5066427;28;20656;-72
2023/12/17 02:15:19;;;;;;;14.20;7.70;;;0.30;99.90;;;;;;5068720;28;20946;-72
2023/12/17 02:17:45;;;;;;;13.13;7.83;;;0.30;99.90;;;;;;5069784;28;20198;-71
2023/12/17 02:20:11;;;;;;;12.13;8.40;;;0.40;99.90;;;;;;5070255;28;20483;-72
2023/12/17 02:22:38;;;;;;;12.93;8.03;;;0.40;99.90;;;;;;5068315;28;20577;-72
2023/12/17 02:25:04;;;;;;;10.30;7.88;;;0.40;99.90;;;;;;5068060;28;20183;-72
2023/12/17 02:27:30;;;;;;;10.73;6.18;;;0.40;99.90;;;;;;5069707;28;20749;-72
2023/12/17 02:29:56;;;;;;;9.57;7.00;;;0.40;99.90;;;;;;5069762;28;20274;-70
2023/12/17 02:32:22;;;;;;;10.90;7.10;;;0.40;99.90;;;;;;5068194;28;20592;-72
2023/12/17 02:34:49;;;;;;;10.65;6.88;;;0.30;99.90;;;;;;5069541;28;20190;-73
2023/12/17 02:37:15;;;;;;;15.40;7.25;;;0.30;99.90;;;;;;5069702;28;20199;-72
2023/12/17 02:39:41;;;;;;;12.13;7.40;;;0.30;99.90;;;;;;5069578;28;20546;-72
2023/12/17 02:42:06;;;;;;;10.80;6.80;;;0.30;99.90;;;;;;5067981;28;20209;-72
2023/12/17 02:44:32;;;;;;;10.80;7.17;;;0.30;99.90;;;;;;5067927;28;20211;-72
2023/12/17 02:46:58;;;;;;;8.13;6.27;;;0.40;99.90;;;;;;5069457;28;20202;-72
2023/12/17 02:49:27;;;;;;;14.43;9.07;;;0.30;99.90;;;;;;5067531;28;20217;-72
2023/12/17 02:51:53;;;;;;;9.55;6.97;;;0.30;99.90;;;;;;5069261;28;20183;-72
2023/12/17 02:54:19;;;;;;;17.43;8.40;;;0.40;99.90;;;;;;5067897;28;20590;-72
2023/12/17 02:56:45;;;;;;;15.15;7.72;;;0.40;99.90;;;;;;5069327;28;20248;-71
2023/12/17 02:59:12;;;;;;;9.40;6.83;;;0.40;99.90;;;;;;5068110;28;20208;-72
2023/12/17 03:01:42;;;;;;;9.23;7.30;;;0.40;99.90;;;;;;5069585;28;20572;-73
2023/12/17 03:04:08;;;;;;;14.43;7.47;;;0.40;99.90;;;;;;5069181;28;20180;-72
2023/12/17 03:06:35;;;;;;;12.20;6.77;;;0.40;99.90;;;;;;5067514;28;20272;-72
2023/12/17 03:09:01;;;;;;;9.98;7.78;;;0.50;99.90;;;;;;5068987;28;20849;-74
2023/12/17 03:11:27;;;;;;;17.50;7.30;;;0.50;99.90;;;;;;5069046;28;20176;-72
2023/12/17 03:13:52;;;;;;;12.90;6.73;;;0.50;99.90;;;;;;5067332;28;20180;-72
2023/12/17 03:16:18;;;;;;;10.37;6.97;;;0.50;99.90;;;;;;5067314;28;20190;-73
2023/12/17 03:18:43;;;;;;;10.50;7.30;;;0.40;99.90;;;;;;5068669;28;20651;-72
2023/12/17 03:21:09;;;;;;;8.47;6.23;;;0.40;99.90;;;;;;5067162;28;20735;-72
2023/12/17 03:23:35;;;;;;;10.57;6.93;;;0.40;99.90;;;;;;5068548;28;20187;-72
2023/12/17 03:26:02;;;;;;;10.47;7.00;;;0.40;99.90;;;;;;5066548;28;20341;-72
2023/12/17 03:28:27;;;;;;;10.65;7.70;;;0.40;99.90;;;;;;5068527;28;20835;-72
2023/12/17 03:30:53;;;;;;;11.73;6.67;;;0.30;99.90;;;;;;5068930;28;20181;-71
2023/12/17 03:33:18;;;;;;;8.40;6.27;;;0.30;99.90;;;;;;5068381;28;20693;-71
2023/12/17 03:35:44;;;;;;;9.43;6.27;;;0.30;99.90;;;;;;5068856;28;20180;-72
2023/12/17 03:38:10;;;;;;;13.10;6.10;;;0.30;99.90;;;;;;5068567;28;20202;-72
2023/12/17 03:40:35;;;;;;;7.97;6.00;;;0.30;99.90;;;;;;5068284;28;20175;-72
2023/12/17 03:43:01;;;;;;;8.17;5.80;;;0.30;99.90;;;;;;5066891;28;20584;-71
2023/12/17 03:45:27;;;;;;;12.43;6.33;;;0.30;99.90;;;;;;5066672;28;20194;-72
2023/12/17 03:47:52;;;;;;;11.97;6.97;;;0.20;99.90;;;;;;5066586;28;21120;-72
2023/12/17 03:50:19;;;;;;;9.10;6.20;;;0.20;99.90;;;;;;5068256;28;20267;-72
2023/12/17 03:52:46;;;;;;;7.90;5.50;;;0.20;99.90;;;;;;5068515;28;20217;-73
2023/12/17 03:55:13;;;;;;;11.02;7.10;;;0.40;99.90;;;;;;5068910;28;20202;-72
2023/12/17 03:57:39;;;;;;;13.57;6.95;;;0.50;99.90;;;;;;5069070;28;20708;-72
2023/12/17 04:00:05;;;;;;;11.80;7.00;;;0.50;99.90;;;;;;5067741;28;20196;-72
2023/12/17 04:02:31;;;;;;;9.75;6.60;;;0.40;99.90;;;;;;5069151;28;20202;-73
2023/12/17 04:04:57;;;;;;;14.40;7.27;;;0.40;99.90;;;;;;5069525;28;20195;-73
2023/12/17 04:07:22;;;;;;;12.93;7.10;;;0.40;99.90;;;;;;5068388;28;20704;-72
2023/12/17 04:09:48;;;;;;;9.23;6.23;;;0.40;99.90;;;;;;5069610;28;20175;-72
2023/12/17 04:12:14;;;;;;;15.67;6.50;;;0.40;99.90;;;;;;5069330;28;20565;-72
2023/12/17 04:14:40;;;;;;;10.20;6.80;;;0.30;99.90;;;;;;5069461;28;20183;-73
2023/12/17 04:17:07;;;;;;;8.52;6.90;;;0.30;99.90;;;;;;5069267;28;20545;-72
2023/12/17 04:19:33;;;;;;;9.40;6.80;;;0.40;99.90;;;;;;5068366;28;20218;-71
2023/12/17 04:21:58;;;;;;;8.50;6.43;;;0.40;99.90;;;;;;5070170;28;20311;-71
2023/12/17 04:24:24;;;;;;;9.53;7.40;;;0.40;99.90;;;;;;5067825;28;20188;-70
2023/12/17 04:26:50;;;;;;;10.43;6.70;;;0.40;99.90;;;;;;5067394;28;20221;-74
2023/12/17 04:29:16;;;;;;;11.73;7.00;;;0.40;99.90;;;;;;5068435;28;20595;-74
2023/12/17 04:31:41;;;;;;;11.10;8.00;;;0.30;99.90;;;;;;5067027;28;20278;-74
2023/12/17 04:34:08;;;;;;;8.90;6.77;;;0.30;99.90;;;;;;5068402;28;20180;-73
2023/12/17 04:36:34;;;;;;;9.98;7.53;;;0.30;99.90;;;;;;5066186;28;20218;-73
2023/12/17 04:39:00;;;;;;;11.10;7.65;;;0.20;99.90;;;;;;5068018;28;20695;-74
2023/12/17 04:41:25;;;;;;;10.77;7.90;;;0.30;99.90;;;;;;5068448;28;20192;-74
2023/12/17 04:43:51;;;;;;;11.60;6.77;;;0.20;99.90;;;;;;5068486;28;20187;-73
2023/12/17 04:46:18;;;;;;;10.37;6.90;;;0.20;99.90;;;;;;5068657;28;20937;-73
2023/12/17 04:48:43;;;;;;;9.82;7.13;;;0.20;99.90;;;;;;5068850;28;20203;-74
2023/12/17 04:51:09;;;;;;;14.57;7.07;;;0.20;99.90;;;;;;5066987;28;20210;-73
2023/12/17 04:53:34;;;;;;;11.60;6.60;;;0.20;99.90;;;;;;5050042;28;20206;-73
2023/12/17 04:56:00;;;;;;;9.90;7.20;;;0.20;99.90;;;;;;5066276;28;20352;-73
2023/12/17 04:58:26;;;;;;;16.20;7.87;;;0.20;99.90;;;;;;5068028;28;20276;-72
2023/12/17 05:00:51;;;;;;;11.27;8.20;;;0.20;99.90;;;;;;5068174;28;20194;-73
2023/12/17 05:03:17;;;;;;;13.77;8.40;;;0.20;99.90;;;;;;5067909;28;20221;-74
2023/12/17 05:05:42;;;;;;;12.57;8.40;;;0.20;99.90;;;;;;5066789;28;20206;-73
2023/12/17 05:08:08;;;;;;;14.83;8.00;;;0.30;99.90;;;;;;5067869;28;20216;-73
2023/12/17 05:10:33;;;;;;;15.10;8.60;;;0.30;99.90;;;;;;5049980;28;20203;-73
2023/12/17 05:12:59;;;;;;;10.67;7.40;;;0.20;99.90;;;;;;5066782;28;20183;-73
2023/12/17 05:15:25;;;;;;;11.67;7.93;;;0.20;99.90;;;;;;5066533;28;20186;-73
2023/12/17 05:17:50;;;;;;;15.67;8.63;;;0.30;99.90;;;;;;5068245;28;20289;-73
2023/12/17 05:20:16;;;;;;;12.43;8.30;;;0.30;99.90;;;;;;5066495;28;20183;-73
2023/12/17 05:22:41;;;;;;;12.90;9.10;;;0.20;99.90;;;;;;5068084;28;20659;-73
2023/12/17 05:25:07;;;;;;;12.13;8.47;;;0.30;99.90;;;;;;5066670;28;20188;-73
2023/12/17 05:27:33;;;;;;;11.73;7.97;;;0.30;99.90;;;;;;5067881;28;20218;-73
2023/12/17 05:29:58;;;;;;;13.20;9.37;;;0.30;99.90;;;;;;5067736;28;20413;-73
2023/12/17 05:32:24;;;;;;;17.60;9.20;;;0.30;99.90;;;;;;5066578;28;20179;-74
2023/12/17 05:34:50;;;;;;;17.47;9.93;;;0.20;99.90;;;;;;5067812;28;20648;-73
2023/12/17 05:37:15;;;;;;;12.90;8.73;;;0.20;99.90;;;;;;5067752;28;20274;-73
2023/12/17 05:39:41;;;;;;;12.80;8.77;;;0.20;99.90;;;;;;5066917;28;20224;-73
2023/12/17 05:42:06;;;;;;;16.77;8.63;;;0.30;99.90;;;;;;5066636;28;20232;-73
2023/12/17 05:44:32;;;;;;;12.37;8.30;;;0.30;99.90;;;;;;5066501;28;20800;-73
2023/12/17 05:46:57;;;;;;;16.13;9.33;;;0.30;99.90;;;;;;5065207;28;20209;-73
2023/12/17 05:49:23;;;;;;;12.97;8.53;;;0.30;99.90;;;;;;5067896;28;20246;-73
2023/12/17 05:51:49;;;;;;;11.23;8.50;;;0.30;99.90;;;;;;5071072;28;20207;-73
2023/12/17 05:54:14;;;;;;;17.23;9.30;;;0.30;99.90;;;;;;5070369;28;20184;-73
2023/12/17 05:56:43;;;;;;;17.03;9.50;;;0.20;99.90;;;;;;5070636;28;20207;-72
2023/12/17 05:59:09;;;;;;;13.45;9.43;;;0.30;99.90;;;;;;5070443;28;20956;-74
2023/12/17 06:01:35;;;;;;;12.90;9.35;;;0.30;99.90;;;;;;5068975;28;20197;-72
2023/12/17 06:04:01;;;;;;;17.97;8.60;;;0.30;99.90;;;;;;5070556;28;20191;-73
2023/12/17 06:06:26;;;;;;;12.43;8.97;;;0.30;99.90;;;;;;5070344;28;20176;-73
2023/12/17 06:08:53;;;;;;;19.27;10.43;;;0.30;99.90;;;;;;5070462;28;20328;-74
2023/12/17 06:11:18;;;;;;;19.60;11.23;;;0.30;99.90;;;;;;5070545;28;20178;-72
2023/12/17 06:13:45;;;;;;;15.60;10.70;;;0.30;99.90;;;;;;5068808;28;20589;-72
2023/12/17 06:16:11;;;;;;;17.98;10.00;;;0.30;99.90;;;;;;5070313;28;20510;-73
2023/12/17 06:18:41;;;;;;;16.55;11.18;;;0.30;99.90;;;;;;5070359;28;20322;-73
2023/12/17 06:21:06;;;;;;;14.25;9.18;;;0.30;99.90;;;;;;5068968;28;20189;-73
2023/12/17 06:23:32;;;;;;;17.07;10.23;;;0.30;99.90;;;;;;5068818;28;20179;-72
2023/12/17 06:25:58;;;;;;;14.83;10.70;;;0.30;99.90;;;;;;5068637;28;20195;-72
2023/12/17 06:28:24;;;;;;;18.67;11.30;;;0.30;99.90;;;;;;5068627;28;20214;-72
2023/12/17 06:30:50;;;;;;;15.40;11.32;;;0.30;99.90;;;;;;5070197;28;20665;-72
2023/12/17 06:33:16;;;;;;;24.45;11.98;;;0.30;99.90;;;;;;5070249;28;20186;-73
2023/12/17 06:35:43;;;;;;;20.37;13.07;;;0.30;99.90;;;;;;5068285;28;20175;-73
2023/12/17 06:38:09;;;;;;;20.40;13.45;;;0.30;99.90;;;;;;5068482;28;20604;-73
2023/12/17 06:40:34;;;;;;;18.80;11.20;;;0.30;99.90;;;;;;5070223;28;20238;-73
2023/12/17 06:43:00;;;;;;;18.10;10.43;;;0.30;99.90;;;;;;5070165;28;20187;-72
2023/12/17 06:45:25;;;;;;;20.13;12.07;;;0.30;99.90;;;;;;5069405;28;20206;-72
2023/12/17 06:47:51;;;;;;;16.37;11.00;;;0.20;99.90;;;;;;5067704;28;20303;-73
2023/12/17 06:50:16;;;;;;;14.70;9.63;;;0.20;99.90;;;;;;5067552;28;20194;-72
2023/12/17 06:52:42;;;;;;;13.87;8.50;;;0.20;99.90;;;;;;5069916;28;20606;-73
2023/12/17 06:55:08;;;;;;;20.67;10.63;;;0.20;99.90;;;;;;5067837;28;20682;-72
2023/12/17 06:57:33;;;;;;;16.03;9.27;;;0.20;99.90;;;;;;5069192;28;20201;-73
2023/12/17 07:00:00;;;;;;;12.43;9.02;;;0.20;99.90;;;;;;5066599;28;20518;-72
2023/12/17 07:02:26;;;;;;;11.70;8.73;;;0.20;99.90;;;;;;5069061;28;20203;-73
2023/12/17 07:04:51;;;;;;;18.50;9.60;;;0.20;99.90;;;;;;5067734;28;20183;-72
2023/12/17 07:07:17;;;;;;;21.10;9.13;;;0.20;99.90;;;;;;5067598;28;20640;-72
2023/12/17 07:09:42;;;;;;;14.43;8.90;;;0.30;99.90;;;;;;5067842;28;20226;-73
2023/12/17 07:12:09;;;;;;;16.00;9.33;;;0.20;99.90;;;;;;5067755;28;20186;-72
2023/12/17 07:14:34;;;;;;;11.60;8.27;;;0.20;99.90;;;;;;5067594;28;20179;-73
2023/12/17 07:17:00;;;;;;;14.20;8.30;;;0.20;99.90;;;;;;5069184;28;20549;-72
2023/12/17 07:19:25;;;;;;;11.97;8.33;;;0.20;99.90;;;;;;5050530;28;20226;-72
2023/12/17 07:21:51;;;;;;;12.23;8.80;;;0.20;99.90;;;;;;5069333;28;20224;-71
2023/12/17 07:24:17;;;;;;;11.73;8.10;;;0.20;99.90;;;;;;5067771;28;20712;-72
2023/12/17 07:26:42;;;;;;;17.30;10.57;;;0.20;99.90;;;;;;5069178;28;20768;-73
2023/12/17 07:29:08;;;;;;;15.60;10.37;;;0.20;99.90;;;;;;5068932;28;20220;-71
2023/12/17 07:31:34;;;;;;;16.10;10.83;;;0.20;99.90;;;;;;5067549;28;20308;-71
2023/12/17 07:33:59;;;;;;;19.70;10.57;;;0.20;99.90;;;;;;5069454;28;20292;-72
2023/12/17 07:36:25;;;;;;;14.57;9.53;;;0.30;99.90;;;;;;5067634;28;20186;-72
2023/12/17 07:38:51;;;;;;;12.03;8.80;;;0.30;99.90;;;;;;5069033;28;20187;-72
2023/12/17 07:41:16;;;;;;;13.87;7.80;;;0.30;99.90;;;;;;5050795;28;20186;-72
2023/12/17 07:43:43;;;;;;;16.20;10.67;;;0.30;99.90;;;;;;5067376;28;20263;-72
2023/12/17 07:46:08;;;;;;;17.77;12.20;;;0.30;99.90;;;;;;5068073;28;20191;-71
2023/12/17 07:48:34;;;;;;;12.10;8.20;;;0.30;99.90;;;;;;5069035;28;20215;-72
2023/12/17 07:51:01;;;;;;;16.40;8.93;;;0.40;99.90;;;;;;5069038;28;20175;-72
2023/12/17 07:53:27;;;;;;;11.43;7.97;;;0.40;99.90;;;;;;5068976;28;20203;-73
2023/12/17 07:55:57;;;;;;;11.17;7.73;;;0.50;99.90;;;;;;5067599;28;20221;-72
2023/12/17 07:58:24;;;;;;;9.52;7.40;;;0.50;99.90;;;;;;5068786;28;20278;-73
2023/12/17 08:00:50;;;;;;;13.93;8.60;;;0.60;99.90;;;;;;5069182;28;20724;-72
2023/12/17 08:03:15;;;;;;;11.37;7.83;;;0.70;99.90;;;;;;5068759;28;20271;-73
2023/12/17 08:05:41;;;;;;;11.53;8.20;;;1.30;99.90;;;;;;5069277;28;20273;-73
2023/12/17 08:08:06;;;;;;;11.83;7.90;;;2.50;99.90;;;;;;5068645;28;20242;-72
2023/12/17 08:10:32;;;;;;;9.53;6.93;;;3.40;99.90;;;;;;5050789;28;20213;-73
2023/12/17 08:12:57;;;;;;;9.40;7.20;;;4.00;99.90;;;;;;5068317;28;20194;-72
2023/12/17 08:15:23;;;;;;;8.00;6.20;;;4.30;99.90;;;;;;5067925;28;20193;-73
2023/12/17 08:17:49;;;;;;;8.90;5.93;;;4.80;99.90;;;;;;5069908;28;20213;-71
2023/12/17 08:20:14;;;;;;;10.30;6.50;;;5.40;99.90;;;;;;5069006;28;20187;-72
2023/12/17 08:22:41;;;;;;;8.80;6.70;;;6.70;99.90;;;;;;5069747;28;20988;-73
2023/12/17 08:25:06;;;;;;;8.80;7.90;;;7.90;99.90;;;;;;5068121;28;20183;-73
2023/12/17 08:27:32;;;;;;;16.07;9.13;;;9.10;99.90;;;;;;5069903;28;20448;-72
2023/12/17 08:29:58;;;;;;;11.43;8.97;;;9.90;99.90;;;;;;5069809;28;20790;-72
2023/12/17 08:32:31;;;;;;;17.13;11.30;;;10.60;99.90;;;;;;5070425;28;20195;-72
2023/12/17 08:34:56;;;;;;;15.37;10.60;;;11.00;99.90;;;;;;5052709;28;20701;-73
2023/12/17 08:37:24;;;;;;;16.90;11.13;;;11.50;99.90;;;;;;5068422;28;20527;-73
2023/12/17 08:39:49;;;;;;;23.47;14.83;;;12.00;99.90;;;;;;5051958;28;20197;-73
2023/12/17 08:42:15;;;;;;;25.43;16.93;;;12.50;99.90;;;;;;5068462;28;20420;-73
2023/12/17 08:44:40;;;;;;;20.90;15.97;;;13.00;99.90;;;;;;5070048;28;20194;-73
2023/12/17 08:47:06;;;;;;;14.87;12.60;;;13.20;99.30;;;;;;5068042;28;20256;-73
2023/12/17 08:49:32;;;;;;;15.03;11.67;;;13.30;98.40;;;;;;5069455;28;20230;-72
2023/12/17 08:51:57;;;;;;;13.43;11.37;;;13.60;97.80;;;;;;5067935;28;20187;-73
2023/12/17 08:54:23;;;;;;;21.33;13.33;;;13.70;97.60;;;;;;5069050;28;20195;-72
2023/12/17 08:56:48;;;;;;;15.73;11.40;;;12.90;97.10;;;;;;5069005;28;20203;-72
2023/12/17 08:59:14;;;;;;;13.03;9.70;;;11.70;99.10;;;;;;5067604;28;20182;-73
2023/12/17 09:01:40;;;;;;;10.67;9.40;;;10.70;99.90;;;;;;5067444;28;20199;-72
2023/12/17 09:04:06;;;;;;;16.87;12.20;;;9.80;99.90;;;;;;5068686;28;20182;-71
2023/12/17 09:06:46;;;;;;;15.63;11.80;;;8.40;99.90;;;;;;5067580;28;20812;-71
2023/12/17 09:09:13;;;;;;;20.10;12.80;;;7.50;99.90;;;;;;5067710;28;20474;-71
2023/12/17 09:11:39;;;;;;;13.37;10.60;;;6.90;99.90;;;;;;5069392;28;20412;-71
2023/12/17 09:14:07;;;;;;;16.17;9.97;;;6.40;99.90;;;;;;5069379;28;20438;-71
2023/12/17 09:16:35;;;;;;;15.40;10.43;;;6.10;99.90;;;;;;5067395;28;20657;-71
2023/12/17 09:19:01;;;;;;;12.73;9.90;;;5.80;99.90;;;;;;5069201;28;20422;-72
2023/12/17 09:21:27;;;;;;;12.80;10.17;;;5.60;99.90;;;;;;5068956;28;20429;-73
2023/12/17 09:23:53;;;;;;;15.93;11.27;;;5.50;99.90;;;;;;5067668;28;20190;-72
2023/12/17 09:26:18;;;;;;;19.87;13.80;;;5.40;99.90;;;;;;5066334;28;20599;-72
2023/12/17 09:28:44;;;;;;;20.93;13.80;;;5.40;99.90;;;;;;5065915;28;20207;-72
2023/12/17 09:31:10;;;;;;;26.50;17.80;;;6.10;99.90;;;;;;5067323;28;20180;-73
2023/12/17 09:33:36;;;;;;;36.17;21.80;;;7.70;99.90;;;;;;5067630;28;20765;-70
2023/12/17 09:36:07;;;;;;;43.50;23.60;;;9.30;99.90;;;;;;5067337;28;20416;-72
2023/12/17 09:38:33;;;;;;;50.87;24.00;;;10.40;99.90;;;;;;5065609;28;21040;-72
2023/12/17 09:40:58;;;;;;;42.40;26.03;;;11.40;99.90;;;;;;5067282;28;20766;-72
2023/12/17 09:43:25;;;;;;;43.10;26.70;;;12.50;99.90;;;;;;5066879;28;20422;-72
2023/12/17 09:45:51;;;;;;;32.37;21.20;;;13.50;99.90;;;;;;5067101;28;20183;-72
2023/12/17 09:48:17;;;;;;;34.03;18.20;;;14.60;99.90;;;;;;5066999;28;20566;-73
2023/12/17 09:50:43;;;;;;;42.63;20.47;;;15.30;97.40;;;;;;5067348;28;20474;-72
2023/12/17 09:53:09;;;;;;;46.03;23.83;;;16.10;96.00;;;;;;5067654;28;20847;-73
2023/12/17 09:55:35;;;;;;;46.83;21.80;;;16.80;94.60;;;;;;5066069;28;20538;-73
2023/12/17 09:58:03;;;;;;;29.03;17.10;;;17.30;92.20;;;;;;5067489;28;20309;-73
2023/12/17 10:00:28;;;;;;;29.27;16.17;;;17.40;91.00;;;;;;5067468;28;20435;-73
2023/12/17 10:03:02;;;;;;;22.73;14.40;;;17.80;90.30;;;;;;5066060;28;20506;-73
2023/12/17 10:05:28;;;;;;;21.63;15.10;;;18.10;90.60;;;;;;5067762;28;20720;-74
2023/12/17 10:07:55;;;;;;;24.87;16.03;;;18.50;89.50;;;;;;5065501;28;20471;-72
2023/12/17 10:10:21;;;;;;;19.40;15.03;;;18.80;85.70;;;;;;5068651;28;20191;-73
2023/12/17 10:12:47;;;;;;;22.50;15.43;;;19.00;87.40;;;;;;5066727;28;20440;-74
2023/12/17 10:15:12;;;;;;;13.60;11.63;;;19.50;86.70;;;;;;5065189;28;20231;-74
2023/12/17 10:17:39;;;;;;;27.23;15.13;;;19.70;83.50;;;;;;5066557;28;20802;-73
2023/12/17 10:20:06;;;;;;;22.43;15.43;;;19.90;84.40;;;;;;5064921;28;20191;-73
2023/12/17 10:22:32;;;;;;;29.00;17.20;;;20.20;84.00;;;;;;5066215;28;20955;-73
2023/12/17 10:24:57;;;;;;;28.07;16.63;;;20.50;84.50;;;;;;5064495;28;20459;-73
2023/12/17 10:27:23;;;;;;;20.27;14.33;;;20.60;82.20;;;;;;5072812;22;20247;-74
2023/12/17 10:29:50;;;;;;;20.90;13.70;;;20.80;82.40;;;;;;5066535;28;20705;-73
2023/12/17 10:32:23;;;;;;;17.43;13.10;;;21.30;80.50;;;;;;5066581;28;20169;-73
2023/12/17 10:34:50;;;;;;;15.13;12.20;;;21.60;79.30;;;;;;5064859;28;20427;-73
2023/12/17 10:37:20;;;;;;;14.40;11.27;;;21.80;79.70;;;;;;5067588;28;20541;-74
2023/12/17 10:39:51;;;;;;;19.20;11.67;;;21.90;78.50;;;;;;5069844;28;20822;-74
2023/12/17 10:42:18;;;;;;;13.27;10.63;;;22.00;75.40;;;;;;5068195;28;20436;-73
2023/12/17 10:44:48;;;;;;;11.47;10.27;;;21.80;73.80;;;;;;5068283;28;20435;-74
2023/12/17 10:47:23;;;;;;;12.23;10.13;;;21.80;73.10;;;;;;5068021;28;20446;-73
2023/12/17 10:49:49;;;;;;;13.87;11.30;;;21.60;71.40;;;;;;5068841;28;20473;-73
2023/12/17 10:52:15;;;;;;;14.40;12.23;;;21.60;71.30;;;;;;5068968;28;20411;-74
2023/12/17 10:54:41;;;;;;;14.00;12.33;;;21.60;72.70;;;;;;5070231;28;20428;-73
2023/12/17 10:57:14;;;;;;;23.67;19.50;;;21.60;71.00;;;;;;5068513;28;20445;-73
2023/12/17 10:59:41;;;;;;;32.43;23.33;;;21.50;70.00;;;;;;5052237;28;20212;-74
2023/12/17 11:02:10;;;;;;;46.33;27.40;;;21.50;69.80;;;;;;5069650;28;20479;-72
2023/12/17 11:04:36;;;;;;;35.03;21.07;;;21.40;70.70;;;;;;5069454;28;20506;-72
2023/12/17 11:07:02;;;;;;;24.30;16.97;;;21.30;70.80;;;;;;5067564;28;20444;-73
2023/12/17 11:09:28;;;;;;;19.33;13.70;;;21.30;69.90;;;;;;5069230;28;20484;-72
2023/12/17 11:11:53;;;;;;;21.03;14.00;;;21.20;69.40;;;;;;5069170;28;20837;-73
2023/12/17 11:14:19;;;;;;;18.83;13.67;;;21.00;71.00;;;;;;5069307;28;20415;-73
2023/12/17 11:16:46;;;;;;;15.23;10.30;;;20.90;69.00;;;;;;5067667;28;20224;-72
2023/12/17 11:19:12;;;;;;;11.30;8.33;;;20.60;68.40;;;;;;5067931;28;20191;-72
2023/12/17 11:21:41;;;;;;;9.27;7.40;;;20.10;69.20;;;;;;5067530;28;20488;-72
2023/12/17 11:24:08;;;;;;;10.07;8.30;;;19.40;70.50;;;;;;5067613;28;20439;-72
2023/12/17 11:26:41;;;;;;;11.60;8.30;;;19.10;69.00;;;;;;5069047;28;20927;-73
2023/12/17 11:29:34;;;;;;;7.97;7.13;;;18.60;70.00;;;;;;5069157;28;20497;-73
2023/12/17 11:32:01;;;;;;;13.97;7.80;;;18.00;70.60;;;;;;5059943;28;20436;-71
2023/12/17 11:34:29;;;;;;;10.40;8.47;;;17.80;69.50;;;;;;5069156;28;20426;-71
2023/12/17 11:36:55;;;;;;;12.07;7.60;;;17.60;71.80;;;;;;5050686;28;20457;-72
2023/12/17 11:39:21;;;;;;;10.77;8.47;;;17.70;71.90;;;;;;5068985;28;20508;-72
2023/12/17 11:41:47;;;;;;;10.00;8.00;;;17.70;72.10;;;;;;5067712;28;20503;-72
2023/12/17 11:44:13;;;;;;;12.83;10.00;;;17.70;72.40;;;;;;5069011;28;20911;-72
2023/12/17 11:46:38;;;;;;;14.43;11.73;;;17.30;71.30;;;;;;5068681;28;20280;-72
2023/12/17 11:49:04;;;;;;;13.00;10.90;;;16.90;74.30;;;;;;5069361;28;20479;-72
2023/12/17 11:51:30;;;;;;;15.70;10.03;;;16.10;74.40;;;;;;5067852;28;20194;-71
2023/12/17 11:53:55;;;;;;;14.93;10.27;;;15.70;75.70;;;;;;5069598;28;20733;-71
2023/12/17 11:56:29;;;;;;;13.10;9.50;;;15.30;76.40;;;;;;5069268;28;20451;-72
2023/12/17 11:58:55;;;;;;;11.93;9.23;;;14.80;77.80;;;;;;5069201;28;20174;-72
2023/12/17 12:01:21;;;;;;;12.30;10.67;;;14.30;80.20;;;;;;5067529;28;20415;-72
2023/12/17 12:03:47;;;;;;;17.33;11.80;;;13.80;81.80;;;;;;5069216;28;20587;-72
2023/12/17 12:06:14;;;;;;;13.43;10.20;;;13.20;86.40;;;;;;5051033;28;20450;-71
2023/12/17 12:08:41;;;;;;;12.80;9.63;;;12.80;90.60;;;;;;5069117;28;20889;-71
2023/12/17 12:11:09;;;;;;;14.50;10.60;;;12.20;94.50;;;;;;5069542;28;20421;-72
2023/12/17 12:13:41;;;;;;;13.70;10.43;;;11.80;96.40;;;;;;5068935;28;20456;-72
2023/12/17 12:16:07;;;;;;;13.90;8.97;;;11.50;97.30;;;;;;5050513;28;20453;-71
2023/12/17 12:18:33;;;;;;;12.03;9.53;;;11.30;99.90;;;;;;5067248;28;20428;-72
2023/12/17 12:20:59;;;;;;;15.00;9.87;;;11.00;99.90;;;;;;5068443;28;20929;-73
2023/12/17 12:23:25;;;;;;;12.20;9.83;;;10.90;99.90;;;;;;5068205;28;20691;-72
2023/12/17 12:25:57;;;;;;;15.40;9.63;;;10.70;99.90;;;;;;5068118;28;20233;-72
2023/12/17 12:28:23;;;;;;;13.07;9.57;;;10.60;99.90;;;;;;5066557;28;20457;-72
2023/12/17 12:30:48;;;;;;;20.50;11.43;;;10.40;99.90;;;;;;5068025;28;20767;-72
2023/12/17 12:33:17;;;;;;;21.50;11.70;;;10.20;99.90;;;;;;5067912;28;20183;-71
2023/12/17 12:35:44;;;;;;;27.77;13.03;;;10.20;99.90;;;;;;5067529;28;20208;-71